createdAt,value
2022-09-20T00:00:12.439Z,12.17
2022-09-20T00:02:39.199Z,12.09
2022-09-20T00:05:06.580Z,12.04
2022-09-20T00:07:33.217Z,11.82
2022-09-20T00:09:59.845Z,11.52
2022-09-20T00:12:27.845Z,11.64
2022-09-20T00:14:54.400Z,11.51
2022-09-20T00:17:21.074Z,11.56
2022-09-20T00:19:47.714Z,11.49
2022-09-20T00:22:14.287Z,11.49
2022-09-20T00:24:42.131Z,11.56
2022-09-20T00:27:11.152Z,11.48
2022-09-20T00:29:39.144Z,11.40
2022-09-20T00:32:05.814Z,11.15
2022-09-20T00:34:32.437Z,11.17
2022-09-20T00:36:59.015Z,11.24
2022-09-20T00:39:25.823Z,11.20
2022-09-20T00:41:52.406Z,11.23
2022-09-20T00:44:44.953Z,10.96
2022-09-20T00:47:22.108Z,11.29
2022-09-20T00:49:51.275Z,11.52
2022-09-20T00:52:19.768Z,11.58
2022-09-20T00:54:47.196Z,11.54
2022-09-20T00:57:13.962Z,11.37
2022-09-20T00:59:46.833Z,11.14
2022-09-20T01:02:18.922Z,11.30
2022-09-20T01:04:47.844Z,11.25
2022-09-20T01:07:17.956Z,11.02
2022-09-20T01:09:44.629Z,11.13
2022-09-20T01:12:16.141Z,11.26
2022-09-20T01:14:46.470Z,10.22
2022-09-20T01:17:14.117Z,11.06
2022-09-20T01:19:53.308Z,11.13
2022-09-20T01:22:25.772Z,10.77
2022-09-20T01:24:59.284Z,11.14
2022-09-20T01:27:39.014Z,11.09
2022-09-20T01:30:08.256Z,10.77
2022-09-20T01:32:47.555Z,10.99
2022-09-20T01:35:16.797Z,11.06
2022-09-20T01:37:59.375Z,11.37
2022-09-20T01:40:33.302Z,11.48
2022-09-20T01:43:11.068Z,10.94
2022-09-20T01:45:45.009Z,11.24
2022-09-20T01:48:18.975Z,11.42
2022-09-20T01:51:29.868Z,11.28
2022-09-20T01:54:29.507Z,11.35
2022-09-20T01:57:28.776Z,11.28
2022-09-20T02:00:15.919Z,11.24
2022-09-20T02:03:19.390Z,11.21
2022-09-20T02:06:20.223Z,10.74
2022-09-20T02:09:12.050Z,10.64
2022-09-20T02:11:52.967Z,10.74
2022-09-20T02:14:34.763Z,10.17
2022-09-20T02:17:12.608Z,10.62
2022-09-20T02:19:54.749Z,10.46
2022-09-20T02:22:31.366Z,10.47
2022-09-20T02:25:06.865Z,10.04
2022-09-20T02:27:41.950Z,10.81
2022-09-20T02:30:23.726Z,10.80
2022-09-20T02:33:12.080Z,11.05
2022-09-20T02:35:50.971Z,11.11
2022-09-20T02:38:30.690Z,11.03
2022-09-20T02:41:14.590Z,11.21
2022-09-20T02:43:52.201Z,11.10
2022-09-20T02:46:26.078Z,11.13
2022-09-20T02:49:14.505Z,10.99
2022-09-20T02:51:44.783Z,11.04
2022-09-20T02:54:21.807Z,10.93
2022-09-20T02:56:55.861Z,11.15
2022-09-20T02:59:29.740Z,10.98
2022-09-20T03:02:07.080Z,11.00
2022-09-20T03:04:53.971Z,11.04
2022-09-20T03:07:30.388Z,10.93
2022-09-20T03:10:12.419Z,10.97
2022-09-20T03:12:50.788Z,10.86
2022-09-20T03:15:28.938Z,10.80
2022-09-20T03:18:06.837Z,10.74
2022-09-20T03:20:46.400Z,10.70
2022-09-20T03:23:20.818Z,10.43
2022-09-20T03:25:55.282Z,10.53
2022-09-20T03:28:36.930Z,10.57
2022-09-20T03:31:12.371Z,10.55
2022-09-20T03:33:48.927Z,10.16
2022-09-20T03:36:34.876Z,10.25
2022-09-20T03:39:29.659Z,10.07
2022-09-20T03:42:14.996Z,9.75
2022-09-20T03:45:19.913Z,9.75
2022-09-20T03:48:13.045Z,9.56
2022-09-20T03:51:04.828Z,9.79
2022-09-20T03:54:16.228Z,9.70
2022-09-20T03:57:15.952Z,9.70
2022-09-20T04:00:06.502Z,10.21
2022-09-20T04:03:09.040Z,10.17
2022-09-20T04:05:47.075Z,9.65
2022-09-20T04:08:38.074Z,9.95
2022-09-20T04:11:27.135Z,10.16
2022-09-20T04:14:11.844Z,10.19
2022-09-20T04:16:49.265Z,10.21
2022-09-20T04:19:44.404Z,10.17
2022-09-20T04:22:26.747Z,10.17
2022-09-20T04:25:03.748Z,9.63
2022-09-20T04:27:45.414Z,9.99
2022-09-20T04:30:27.326Z,9.86
2022-09-20T04:33:14.671Z,9.57
2022-09-20T04:35:57.302Z,9.64
2022-09-20T04:38:25.820Z,9.71
2022-09-20T04:41:18.586Z,9.59
2022-09-20T04:44:17.196Z,9.66
2022-09-20T04:47:16.870Z,10.03
2022-09-20T04:50:13.853Z,10.02
2022-09-20T04:53:10.447Z,9.94
2022-09-20T04:55:56.196Z,9.94
2022-09-20T04:58:46.269Z,10.20
2022-09-20T05:01:49.221Z,10.10
2022-09-20T05:05:05.840Z,10.03
2022-09-20T05:08:16.737Z,9.95
2022-09-20T05:14:32.391Z,10.31
2022-09-20T05:17:29.037Z,9.93
2022-09-20T05:20:31.047Z,9.85
2022-09-20T05:23:25.991Z,9.62
2022-09-20T05:26:24.311Z,10.07
2022-09-20T05:29:11.756Z,10.37
2022-09-20T05:32:04.523Z,10.20
2022-09-20T05:38:05.113Z,10.27
2022-09-20T05:41:06.466Z,10.18
2022-09-20T05:44:10.956Z,9.81
2022-09-20T05:50:04.785Z,10.33
2022-09-20T05:52:57.110Z,10.72
2022-09-20T05:56:14.133Z,10.50
2022-09-20T06:06:01.850Z,10.94
2022-09-20T06:09:02.204Z,10.58
2022-09-20T06:11:59.345Z,10.99
2022-09-20T06:15:11.864Z,11.70
2022-09-20T06:18:21.686Z,11.24
2022-09-20T06:21:30.227Z,10.91
2022-09-20T06:24:47.045Z,10.07
2022-09-20T06:30:34.245Z,10.74
2022-09-20T06:33:17.340Z,10.67
2022-09-20T06:35:50.800Z,10.95
2022-09-20T06:38:45.559Z,10.78
2022-09-20T06:41:12.861Z,11.24
2022-09-20T06:43:39.472Z,11.61
2022-09-20T06:46:06.172Z,11.30
2022-09-20T06:48:34.416Z,11.32
2022-09-20T06:51:01.820Z,11.06
2022-09-20T06:53:30.790Z,11.55
2022-09-20T06:55:58.029Z,10.82
2022-09-20T06:58:25.167Z,10.72
2022-09-20T07:00:55.769Z,11.21
2022-09-20T07:03:26.965Z,11.59
2022-09-20T07:51:53.739Z,12.45
2022-09-20T08:23:22.507Z,14.03
2022-09-20T08:26:12.285Z,13.25
2022-09-20T08:29:50.158Z,13.25
2022-09-20T08:56:55.878Z,15.34
2022-09-20T08:59:23.406Z,15.96
2022-09-20T09:01:51.068Z,15.22
2022-09-20T09:04:22.237Z,14.90
2022-09-20T09:07:00.631Z,14.94
2022-09-20T09:09:28.801Z,15.11
2022-09-20T09:11:57.829Z,15.34
2022-09-20T09:14:30.515Z,15.10
2022-09-20T09:17:19.381Z,15.23
2022-09-20T09:19:58.664Z,15.77
2022-09-20T09:22:29.608Z,15.70
2022-09-20T09:25:36.808Z,15.62
2022-09-20T09:28:13.892Z,15.75
2022-09-20T09:30:45.830Z,15.94
2022-09-20T09:33:37.441Z,15.80
2022-09-20T09:36:08.894Z,15.67
2022-09-20T09:38:37.945Z,16.15
2022-09-20T09:41:06.828Z,15.88
2022-09-20T09:44:05.279Z,15.88
2022-09-20T09:46:43.294Z,16.06
2022-09-20T09:49:18.041Z,16.42
2022-09-20T09:52:04.489Z,16.42
2022-09-20T09:54:34.127Z,16.82
2022-09-20T09:57:16.273Z,16.93
2022-09-20T10:00:00.947Z,17.38
2022-09-20T10:03:00.176Z,16.56
2022-09-20T10:05:35.672Z,16.42
2022-09-20T10:08:14.943Z,16.74
2022-09-20T10:10:54.250Z,16.86
2022-09-20T10:13:29.911Z,17.07
2022-09-20T10:16:05.522Z,16.91
2022-09-20T10:18:47.748Z,16.83
2022-09-20T10:21:35.902Z,16.81
2022-09-20T10:24:14.215Z,16.87
2022-09-20T10:27:05.799Z,17.03
2022-09-20T10:29:44.546Z,17.03
2022-09-20T10:32:27.844Z,17.25
2022-09-20T10:35:13.838Z,17.43
2022-09-20T10:37:53.885Z,17.27
2022-09-20T10:40:28.853Z,17.37
2022-09-20T10:43:07.868Z,17.61
2022-09-20T10:46:08.714Z,17.89
2022-09-20T10:48:38.413Z,17.92
2022-09-20T10:51:16.436Z,17.92
2022-09-20T10:53:51.193Z,17.91
2022-09-20T10:56:27.807Z,18.07
2022-09-20T10:59:25.076Z,18.29
2022-09-20T11:02:09.788Z,18.21
2022-09-20T11:04:56.644Z,18.28
2022-09-20T11:07:33.042Z,18.25
2022-09-20T11:10:05.793Z,18.48
2022-09-20T11:12:37.282Z,18.89
2022-09-20T11:15:12.254Z,18.54
2022-09-20T11:17:42.729Z,18.92
2022-09-20T11:20:19.306Z,19.00
2022-09-20T11:22:49.627Z,18.93
2022-09-20T11:25:21.534Z,19.23
2022-09-20T11:27:53.332Z,18.89
2022-09-20T11:30:21.971Z,19.11
2022-09-20T11:32:54.238Z,19.28
2022-09-20T11:35:28.964Z,19.23
2022-09-20T11:38:06.263Z,19.15
2022-09-20T11:40:37.259Z,19.62
2022-09-20T11:43:08.727Z,19.82
2022-09-20T11:45:38.926Z,19.84
2022-09-20T11:48:10.147Z,19.97
2022-09-20T11:51:02.133Z,20.16
2022-09-20T11:53:47.084Z,20.18
2022-09-20T11:56:22.151Z,20.27
2022-09-20T11:58:51.010Z,20.52
2022-09-20T12:01:28.419Z,20.49
2022-09-20T12:04:20.660Z,20.22
2022-09-20T12:06:47.775Z,19.79
2022-09-20T12:09:25.212Z,19.23
2022-09-20T12:11:52.786Z,19.15
2022-09-20T12:14:22.594Z,19.21
2022-09-20T12:16:50.962Z,19.08
2022-09-20T12:19:38.485Z,18.98
2022-09-20T12:22:28.208Z,18.84
2022-09-20T12:25:36.481Z,18.72
2022-09-20T12:28:03.513Z,18.28
2022-09-20T12:30:30.273Z,18.19
2022-09-20T12:32:59.402Z,18.21
2022-09-20T12:36:25.696Z,18.02
2022-09-20T12:39:04.597Z,18.07
2022-09-20T12:41:46.170Z,18.11
2022-09-20T12:44:25.872Z,18.18
2022-09-20T12:46:55.881Z,18.28
2022-09-20T12:49:47.175Z,18.38
2022-09-20T12:52:30.802Z,18.58
2022-09-20T12:55:04.636Z,18.79
2022-09-20T12:57:34.337Z,18.57
2022-09-20T13:00:03.978Z,18.77
2022-09-20T13:02:57.291Z,19.16
2022-09-20T13:05:32.447Z,19.08
2022-09-20T13:08:17.612Z,18.97
2022-09-20T13:10:48.407Z,18.91
2022-09-20T13:13:39.526Z,19.03
2022-09-20T13:16:07.199Z,19.17
2022-09-20T13:18:36.260Z,19.15
2022-09-20T13:21:07.794Z,19.37
2022-09-20T13:23:45.354Z,19.24
2022-09-20T13:26:15.815Z,18.99
2022-09-20T13:28:49.394Z,19.18
2022-09-20T13:31:26.638Z,19.31
2022-09-20T13:33:53.458Z,19.18
2022-09-20T13:36:28.696Z,19.50
2022-09-20T13:38:57.474Z,19.74
2022-09-20T13:41:28.663Z,19.54
2022-09-20T13:43:55.474Z,20.05
2022-09-20T13:46:24.431Z,19.99
2022-09-20T13:48:57.856Z,19.80
2022-09-20T13:51:26.757Z,19.67
2022-09-20T13:53:53.889Z,19.95
2022-09-20T13:56:22.990Z,20.28
2022-09-20T13:58:51.814Z,20.53
2022-09-20T14:01:26.780Z,20.84
2022-09-20T14:03:53.826Z,20.66
2022-09-20T14:06:25.481Z,20.58
2022-09-20T14:08:52.425Z,20.39
2022-09-20T14:11:21.468Z,20.21
2022-09-20T14:13:51.708Z,20.48
2022-09-20T14:16:22.066Z,20.95
2022-09-20T14:18:49.817Z,20.78
2022-09-20T14:21:21.828Z,20.79
2022-09-20T14:23:53.674Z,20.54
2022-09-20T14:26:26.233Z,20.56
2022-09-20T14:28:53.370Z,20.39
2022-09-20T14:31:25.401Z,20.50
2022-09-20T14:33:55.405Z,20.42
2022-09-20T14:36:24.310Z,20.03
2022-09-20T14:38:53.732Z,19.76
2022-09-20T14:41:28.055Z,19.61
2022-09-20T14:43:56.879Z,19.55
2022-09-20T14:46:31.779Z,19.51
2022-09-20T14:49:19.827Z,19.17
2022-09-20T14:51:46.456Z,19.26
2022-09-20T14:54:25.102Z,18.97
2022-09-20T14:56:51.781Z,18.86
2022-09-20T14:59:24.864Z,18.62
2022-09-20T15:02:01.056Z,18.58
2022-09-20T15:04:28.243Z,18.40
2022-09-20T15:06:56.330Z,18.36
2022-09-20T15:09:23.025Z,18.26
2022-09-20T15:12:00.503Z,18.14
2022-09-20T15:14:27.311Z,18.07
2022-09-20T15:16:54.219Z,18.00
2022-09-20T15:19:22.330Z,17.92
2022-09-20T15:21:49.008Z,17.79
2022-09-20T15:24:15.607Z,17.68
2022-09-20T15:26:42.263Z,17.42
2022-09-20T15:29:13.895Z,17.39
2022-09-20T15:31:40.613Z,17.38
2022-09-20T15:34:07.490Z,17.23
2022-09-20T15:36:35.785Z,17.14
2022-09-20T15:39:02.422Z,16.96
2022-09-20T15:41:31.247Z,17.04
2022-09-20T15:43:58.256Z,16.92
2022-09-20T15:46:25.792Z,16.72
2022-09-20T15:48:52.730Z,16.85
2022-09-20T15:51:19.778Z,16.74
2022-09-20T15:53:54.218Z,16.71
2022-09-20T15:56:22.724Z,16.39
2022-09-20T15:58:50.985Z,15.95
2022-09-20T16:01:18.917Z,15.38
2022-09-20T16:03:46.623Z,15.18
2022-09-20T16:06:13.509Z,14.92
2022-09-20T16:08:43.186Z,14.73
2022-09-20T16:11:16.494Z,14.85
2022-09-20T16:13:46.168Z,14.55
2022-09-20T16:16:13.111Z,14.68
2022-09-20T16:18:39.797Z,14.58
2022-09-20T16:21:07.827Z,14.67
2022-09-20T16:23:34.548Z,14.55
2022-09-20T16:26:01.263Z,14.50
2022-09-20T16:28:29.280Z,14.79
2022-09-20T16:30:56.666Z,14.74
2022-09-20T16:33:23.294Z,14.73
2022-09-20T16:35:49.994Z,14.36
2022-09-20T16:38:16.654Z,14.27
2022-09-20T16:40:43.292Z,14.31
2022-09-20T16:43:09.989Z,14.45
2022-09-20T16:45:38.030Z,13.80
2022-09-20T16:48:08.489Z,14.21
2022-09-20T16:50:35.316Z,13.79
2022-09-20T16:53:01.956Z,14.13
2022-09-20T16:55:28.780Z,14.30
2022-09-20T16:57:55.407Z,14.26
2022-09-20T17:00:22.145Z,14.24
2022-09-20T17:02:50.865Z,13.67
2022-09-20T17:05:17.664Z,13.50
2022-09-20T17:07:44.255Z,13.79
2022-09-20T17:10:10.998Z,13.57
2022-09-20T17:12:37.551Z,13.36
2022-09-20T17:15:04.786Z,13.56
2022-09-20T17:17:31.430Z,13.71
2022-09-20T17:19:59.805Z,14.10
2022-09-20T17:22:26.400Z,13.98
2022-09-20T17:24:53.029Z,14.07
2022-09-20T17:27:19.662Z,13.91
2022-09-20T17:29:46.311Z,13.53
2022-09-20T17:32:14.266Z,13.89
2022-09-20T17:34:41.070Z,14.05
2022-09-20T17:37:09.049Z,13.87
2022-09-20T17:39:35.778Z,13.76
2022-09-20T17:42:02.377Z,14.17
2022-09-20T17:44:29.061Z,13.64
2022-09-20T17:46:55.912Z,13.97
2022-09-20T17:49:23.510Z,14.00
2022-09-20T17:51:51.901Z,13.95
2022-09-20T17:54:21.015Z,13.95
2022-09-20T17:56:49.374Z,14.20
2022-09-20T17:59:17.563Z,13.96
2022-09-20T18:01:45.711Z,14.13
2022-09-20T18:04:12.908Z,14.12
2022-09-20T18:06:41.128Z,14.21
2022-09-20T18:09:11.221Z,14.04
2022-09-20T18:11:41.434Z,14.00
2022-09-20T18:14:09.862Z,13.92
2022-09-20T18:16:37.370Z,13.89
2022-09-20T18:19:04.772Z,14.03
2022-09-20T18:21:32.322Z,14.09
2022-09-20T18:23:59.049Z,13.82
2022-09-20T18:26:27.789Z,13.86
2022-09-20T18:29:00.152Z,13.88
2022-09-20T18:31:28.588Z,14.22
2022-09-20T18:33:57.446Z,14.40
2022-09-20T18:36:24.569Z,13.92
2022-09-20T18:38:51.784Z,13.88
2022-09-20T18:41:18.364Z,14.17
2022-09-20T18:43:46.627Z,13.95
2022-09-20T18:46:14.765Z,14.24
2022-09-20T18:48:41.401Z,14.07
2022-09-20T18:51:08.780Z,14.34
2022-09-20T18:53:36.995Z,14.02
2022-09-20T18:56:08.373Z,14.15
2022-09-20T18:58:36.596Z,14.10
2022-09-20T19:01:23.527Z,14.01
2022-09-20T19:04:00.834Z,14.04
2022-09-20T19:06:33.953Z,14.14
2022-09-20T19:09:04.781Z,14.15
2022-09-20T19:11:37.840Z,13.93
2022-09-20T19:14:11.282Z,14.06
2022-09-20T19:16:39.680Z,14.22
2022-09-20T19:19:33.205Z,14.28
2022-09-20T19:22:08.441Z,14.22
2022-09-20T19:24:51.729Z,14.28
2022-09-20T19:27:18.777Z,14.09
2022-09-20T19:29:46.234Z,14.19
2022-09-20T19:32:17.491Z,13.92
2022-09-20T19:34:44.971Z,13.90
2022-09-20T19:37:23.920Z,14.18
2022-09-20T19:40:07.179Z,14.19
2022-09-20T19:42:40.516Z,14.07
2022-09-20T19:45:19.400Z,14.03
2022-09-20T19:47:54.273Z,14.04
2022-09-20T19:50:27.326Z,14.10
2022-09-20T19:52:55.088Z,14.05
2022-09-20T19:55:22.562Z,13.83
2022-09-20T19:57:49.825Z,13.75
2022-09-20T20:00:19.100Z,13.89
2022-09-20T20:02:48.398Z,13.76
2022-09-20T20:05:17.779Z,13.79
2022-09-20T20:07:52.401Z,13.86
2022-09-20T20:10:26.818Z,13.81
2022-09-20T20:12:59.834Z,13.76
2022-09-20T20:15:38.714Z,13.77
2022-09-20T20:18:17.410Z,13.72
2022-09-20T20:20:47.626Z,13.81
2022-09-20T20:23:40.715Z,13.92
2022-09-20T20:26:09.213Z,13.87
2022-09-20T20:28:36.851Z,14.10
2022-09-20T20:31:04.644Z,13.77
2022-09-20T20:33:32.764Z,13.92
2022-09-20T20:36:01.245Z,13.88
2022-09-20T20:38:28.280Z,13.98
2022-09-20T20:40:58.923Z,14.11
2022-09-20T20:43:25.512Z,14.10
2022-09-20T20:45:52.149Z,14.03
2022-09-20T20:48:18.832Z,14.15
2022-09-20T20:50:46.787Z,14.05
2022-09-20T20:53:13.393Z,13.80
2022-09-20T20:55:39.990Z,13.69
2022-09-20T20:58:06.794Z,13.50
2022-09-20T21:00:33.391Z,13.48
2022-09-20T21:03:01.479Z,13.32
2022-09-20T21:05:28.746Z,13.37
2022-09-20T21:07:56.753Z,13.14
2022-09-20T21:10:23.718Z,12.88
2022-09-20T21:12:53.256Z,13.03
2022-09-20T21:15:19.748Z,12.98
2022-09-20T21:17:50.598Z,13.20
2022-09-20T21:20:17.218Z,12.92
2022-09-20T21:22:43.846Z,12.92
2022-09-20T21:25:11.835Z,12.85
2022-09-20T21:27:38.409Z,12.94
2022-09-20T21:30:06.015Z,12.91
2022-09-20T21:32:32.675Z,12.76
2022-09-20T21:34:59.262Z,12.76
2022-09-20T21:37:25.943Z,12.75
2022-09-20T21:39:52.545Z,12.84
2022-09-20T21:42:20.511Z,12.58
2022-09-20T21:44:47.158Z,12.74
2022-09-20T21:47:13.790Z,12.83
2022-09-20T21:49:40.392Z,12.82
2022-09-20T21:52:06.999Z,12.77
2022-09-20T21:54:33.650Z,12.87
2022-09-20T21:57:00.250Z,12.94
2022-09-20T21:59:28.178Z,13.06
2022-09-20T22:01:54.895Z,12.75
2022-09-20T22:04:21.519Z,12.60
2022-09-20T22:06:48.118Z,12.64
2022-09-20T22:09:16.729Z,12.65
2022-09-20T22:11:44.908Z,12.69
2022-09-20T22:14:13.085Z,12.76
2022-09-20T22:16:42.794Z,12.75
2022-09-20T22:19:11.612Z,12.76
2022-09-20T22:21:41.284Z,12.43
2022-09-20T22:24:10.055Z,12.62
2022-09-20T22:26:38.326Z,12.79
2022-09-20T22:29:05.090Z,12.93
2022-09-20T22:31:33.139Z,12.92
2022-09-20T22:34:03.076Z,12.89
2022-09-20T22:36:31.809Z,12.84
2022-09-20T22:38:58.737Z,12.77
2022-09-20T22:41:25.704Z,12.74
2022-09-20T22:43:52.275Z,12.88
2022-09-20T22:46:20.931Z,13.20
2022-09-20T22:48:48.519Z,13.00
2022-09-20T22:51:17.757Z,13.08
2022-09-20T22:53:45.063Z,12.99
2022-09-20T22:56:13.787Z,12.79
2022-09-20T22:58:42.012Z,12.89
2022-09-20T23:01:10.976Z,12.79
2022-09-20T23:03:38.641Z,12.76
2022-09-20T23:06:11.669Z,12.61
2022-09-20T23:08:39.907Z,12.87
2022-09-20T23:11:07.128Z,12.87
2022-09-20T23:13:33.942Z,12.80
2022-09-20T23:16:00.812Z,12.95
2022-09-20T23:18:27.435Z,12.66
2022-09-20T23:21:01.442Z,12.68
2022-09-20T23:23:28.309Z,12.61
2022-09-20T23:26:02.567Z,12.73
2022-09-20T23:28:29.116Z,12.89
2022-09-20T23:31:02.759Z,12.96
2022-09-20T23:33:31.004Z,12.79
2022-09-20T23:35:57.743Z,12.64
2022-09-20T23:38:24.382Z,12.42
2022-09-20T23:40:51.126Z,12.45
2022-09-20T23:43:19.060Z,12.58
2022-09-20T23:45:45.784Z,12.93
2022-09-20T23:48:12.498Z,13.02
2022-09-20T23:50:39.126Z,13.05
2022-09-20T23:53:05.747Z,12.87
2022-09-20T23:55:32.344Z,12.79
2022-09-20T23:57:58.914Z,12.94
